Time;durP1;ratioP1;P1;durP2;ratioP2;P2;SDS_P1;SDS_P2;PMS_P1;PMS_P2;Temp;Humidity;BMP_temperature;BMP_pressure;BME280_temperature;BME280_humidity;BME280_pressure;Samples;Min_cycle;Max_cycle;Signal;HPM_P1;HPM_P2
2022/06/24 00:00:06;;;;;;;7.55;4.80;;;;;;;;;;5006776;28;20038;-78
2022/06/24 00:02:32;;;;;;;8.43;4.80;;;;;;;;;;5005459;28;20489;-77
2022/06/24 00:05:00;;;;;;;6.95;5.00;;;;;;;;;;4991635;28;20030;-77
2022/06/24 00:07:26;;;;;;;6.00;4.50;;;;;;;;;;4991645;28;20062;-78
2022/06/24 00:09:52;;;;;;;7.85;4.70;;;;;;;;;;4991046;28;20061;-78
2022/06/24 00:12:20;;;;;;;6.03;4.75;;;;;;;;;;4992377;28;20492;-77
2022/06/24 00:14:55;;;;;;;5.13;4.22;;;;;;;;;;4991115;28;20105;-77
2022/06/24 00:17:21;;;;;;;6.18;4.45;;;;;;;;;;4990596;28;20122;-77
2022/06/24 00:19:54;;;;;;;7.00;4.55;;;;;;;;;;4994359;28;20034;-77
2022/06/24 00:22:21;;;;;;;7.03;4.65;;;;;;;;;;4994030;28;20026;-77
2022/06/24 00:24:47;;;;;;;6.97;4.57;;;;;;;;;;4993891;28;20488;-77
2022/06/24 00:27:22;;;;;;;6.32;4.72;;;;;;;;;;5003303;28;20030;-77
2022/06/24 00:29:48;;;;;;;6.82;4.47;;;;;;;;;;5014959;28;20010;-77
2022/06/24 00:32:14;;;;;;;7.82;5.03;;;;;;;;;;4997342;28;20451;-77
2022/06/24 00:34:41;;;;;;;7.10;5.00;;;;;;;;;;4994732;28;20100;-77
2022/06/24 00:37:26;;;;;;;6.13;5.10;;;;;;;;;;4993324;28;20058;-77
2022/06/24 00:39:54;;;;;;;7.15;5.07;;;;;;;;;;4994273;28;20019;-77
2022/06/24 00:42:21;;;;;;;7.72;5.60;;;;;;;;;;5008966;28;20034;-77
2022/06/24 00:44:54;;;;;;;6.65;5.38;;;;;;;;;;5010726;28;20488;-77
2022/06/24 00:47:21;;;;;;;6.43;4.85;;;;;;;;;;4993654;28;20088;-77
2022/06/24 00:49:47;;;;;;;6.45;5.35;;;;;;;;;;4993880;28;20566;-77
2022/06/24 00:52:15;;;;;;;8.65;5.38;;;;;;;;;;4993345;28;20030;-78
2022/06/24 00:54:42;;;;;;;6.53;5.78;;;;;;;;;;4994602;28;20026;-78
2022/06/24 00:57:08;;;;;;;9.23;5.55;;;;;;;;;;4995221;28;20631;-77
2022/06/24 00:59:35;;;;;;;6.70;5.45;;;;;;;;;;4993693;28;20048;-77
2022/06/24 01:02:05;;;;;;;7.70;6.10;;;;;;;;;;4993532;28;20478;-77
2022/06/24 01:04:31;;;;;;;7.22;5.22;;;;;;;;;;5007836;28;20127;-77
2022/06/24 01:06:57;;;;;;;8.93;5.70;;;;;;;;;;5013752;28;20432;-77
2022/06/24 01:09:23;;;;;;;6.68;5.63;;;;;;;;;;5013873;28;20538;-78
2022/06/24 01:11:50;;;;;;;7.00;5.25;;;;;;;;;;5008541;28;20112;-77
2022/06/24 01:14:16;;;;;;;6.40;5.18;;;;;;;;;;4992598;28;20473;-77
2022/06/24 01:16:42;;;;;;;8.73;5.65;;;;;;;;;;4992312;28;20025;-78
2022/06/24 01:19:09;;;;;;;6.82;5.32;;;;;;;;;;4992836;28;20033;-77
2022/06/24 01:21:36;;;;;;;7.03;5.30;;;;;;;;;;4992989;28;20027;-77
2022/06/24 01:24:03;;;;;;;7.65;5.20;;;;;;;;;;4996304;28;20032;-77
2022/06/24 01:26:29;;;;;;;6.78;5.13;;;;;;;;;;4992074;28;20034;-77
2022/06/24 01:28:55;;;;;;;6.68;5.40;;;;;;;;;;5009619;28;20080;-77
2022/06/24 01:31:21;;;;;;;6.90;5.18;;;;;;;;;;4992405;28;20038;-77
2022/06/24 01:33:47;;;;;;;7.53;5.30;;;;;;;;;;4992073;28;20129;-77
2022/06/24 01:36:13;;;;;;;7.07;5.05;;;;;;;;;;5011973;28;20036;-77
2022/06/24 01:38:39;;;;;;;7.88;5.50;;;;;;;;;;5013310;28;20107;-77
2022/06/24 01:41:05;;;;;;;6.97;5.57;;;;;;;;;;4992058;28;20481;-77
2022/06/24 01:43:31;;;;;;;8.68;5.88;;;;;;;;;;4992642;28;20035;-77
2022/06/24 01:45:57;;;;;;;8.30;6.15;;;;;;;;;;4992905;28;20073;-77
2022/06/24 01:48:23;;;;;;;6.70;6.00;;;;;;;;;;4998855;28;20026;-77
2022/06/24 01:50:49;;;;;;;10.00;6.10;;;;;;;;;;5013037;28;20392;-77
2022/06/24 01:53:15;;;;;;;7.35;5.85;;;;;;;;;;5012270;28;20025;-77
2022/06/24 01:55:41;;;;;;;7.85;6.53;;;;;;;;;;4999364;28;20026;-78
2022/06/24 01:58:07;;;;;;;7.68;6.45;;;;;;;;;;5009755;28;20395;-77
2022/06/24 02:00:33;;;;;;;7.88;6.63;;;;;;;;;;5012794;28;20112;-77
2022/06/24 02:02:59;;;;;;;7.82;6.80;;;;;;;;;;5012831;28;20065;-77
2022/06/24 02:05:25;;;;;;;8.85;6.72;;;;;;;;;;5012388;28;20026;-77
2022/06/24 02:07:51;;;;;;;7.93;6.50;;;;;;;;;;4992420;28;20504;-78
2022/06/24 02:15:47;;;;;;;7.55;6.22;;;;;;;;;;4999290;28;20042;-77
2022/06/24 02:18:13;;;;;;;8.75;6.90;;;;;;;;;;4992071;28;20557;-77
2022/06/24 02:20:39;;;;;;;10.07;7.00;;;;;;;;;;4991649;28;20293;-77
2022/06/24 02:23:05;;;;;;;9.20;7.20;;;;;;;;;;5005684;28;20030;-77
2022/06/24 02:25:31;;;;;;;8.57;7.15;;;;;;;;;;5009547;28;20026;-77
2022/06/24 02:27:57;;;;;;;7.68;6.70;;;;;;;;;;5012629;28;20605;-77
2022/06/24 02:30:23;;;;;;;8.55;6.82;;;;;;;;;;4994819;28;20038;-77
2022/06/24 02:32:50;;;;;;;10.45;8.00;;;;;;;;;;4992973;28;20058;-77
2022/06/24 02:35:16;;;;;;;10.70;8.43;;;;;;;;;;5006348;28;20037;-77
2022/06/24 02:37:42;;;;;;;9.65;7.57;;;;;;;;;;4997372;28;20034;-77
2022/06/24 02:42:54;;;;;;;10.88;9.15;;;;;;;;;;5012323;28;20502;-77
2022/06/24 02:45:20;;;;;;;10.50;8.32;;;;;;;;;;5012452;28;20408;-77
2022/06/24 02:47:46;;;;;;;9.88;7.97;;;;;;;;;;5011036;28;20026;-77
2022/06/24 02:50:12;;;;;;;12.60;9.23;;;;;;;;;;5009641;28;20030;-77
2022/06/24 02:52:38;;;;;;;11.55;9.73;;;;;;;;;;4994476;28;20033;-77
2022/06/24 02:55:05;;;;;;;12.85;9.18;;;;;;;;;;4990298;28;20036;-78
2022/06/24 02:57:31;;;;;;;13.10;11.05;;;;;;;;;;4992356;28;20030;-78
2022/06/24 02:59:57;;;;;;;13.52;9.60;;;;;;;;;;4992601;28;20495;-77
2022/06/24 03:02:23;;;;;;;11.52;9.93;;;;;;;;;;4991946;28;20026;-78
2022/06/24 03:04:49;;;;;;;11.35;9.88;;;;;;;;;;4997409;28;20018;-78
2022/06/24 03:07:15;;;;;;;11.30;10.07;;;;;;;;;;4998495;28;20491;-78
2022/06/24 03:09:41;;;;;;;11.27;9.77;;;;;;;;;;4988611;28;20015;-78
2022/06/24 03:12:07;;;;;;;11.35;10.13;;;;;;;;;;4991227;28;20117;-77
2022/06/24 03:14:33;;;;;;;13.65;10.70;;;;;;;;;;4992295;28;20440;-78
2022/06/24 03:16:59;;;;;;;12.07;10.30;;;;;;;;;;4991316;28;20060;-77
2022/06/24 03:19:26;;;;;;;13.13;10.80;;;;;;;;;;4997524;28;20033;-77
2022/06/24 03:21:52;;;;;;;12.05;9.57;;;;;;;;;;5011502;28;20080;-78
2022/06/24 03:24:18;;;;;;;16.42;11.88;;;;;;;;;;5011722;28;20053;-78
2022/06/24 03:26:44;;;;;;;11.70;10.07;;;;;;;;;;4996930;28;20027;-79
2022/06/24 03:29:10;;;;;;;11.85;10.55;;;;;;;;;;4994950;28;20084;-78
2022/06/24 03:31:36;;;;;;;13.23;10.20;;;;;;;;;;4991986;28;20018;-79
2022/06/24 03:34:02;;;;;;;13.05;10.75;;;;;;;;;;4991719;28;20098;-78
2022/06/24 03:36:29;;;;;;;11.40;9.68;;;;;;;;;;4990497;28;20452;-78
2022/06/24 03:38:55;;;;;;;12.15;9.82;;;;;;;;;;5008352;28;20030;-78
2022/06/24 03:41:21;;;;;;;13.10;9.52;;;;;;;;;;4990531;28;20034;-77
2022/06/24 03:43:47;;;;;;;16.70;9.88;;;;;;;;;;5006859;28;20077;-78
2022/06/24 03:46:13;;;;;;;11.73;9.68;;;;;;;;;;4990222;28;20097;-78
2022/06/24 03:48:39;;;;;;;9.75;8.75;;;;;;;;;;5002342;28;20029;-78
2022/06/24 03:51:05;;;;;;;11.48;9.38;;;;;;;;;;4991868;28;20049;-78
2022/06/24 03:53:31;;;;;;;9.88;8.73;;;;;;;;;;4993445;28;20433;-77
2022/06/24 03:55:57;;;;;;;11.40;9.52;;;;;;;;;;4996077;28;20120;-78
2022/06/24 03:58:23;;;;;;;10.65;9.50;;;;;;;;;;4976277;28;20114;-79
2022/06/24 04:00:49;;;;;;;10.27;9.05;;;;;;;;;;4988664;28;20423;-77
2022/06/24 04:03:15;;;;;;;14.43;11.32;;;;;;;;;;5003846;28;20045;-77
2022/06/24 04:05:42;;;;;;;13.25;11.88;;;;;;;;;;4997098;28;20025;-77
2022/06/24 04:08:08;;;;;;;12.05;10.50;;;;;;;;;;4996305;28;20031;-78
2022/06/24 04:10:38;;;;;;;12.32;10.90;;;;;;;;;;4999766;28;20396;-78
2022/06/24 04:13:04;;;;;;;13.77;11.68;;;;;;;;;;4993283;28;20030;-77
2022/06/24 04:15:30;;;;;;;12.82;10.70;;;;;;;;;;4998102;28;20101;-77
2022/06/24 04:17:56;;;;;;;16.63;11.77;;;;;;;;;;4998559;28;20472;-77
2022/06/24 04:20:22;;;;;;;11.98;10.32;;;;;;;;;;4999488;28;20038;-77
2022/06/24 04:22:48;;;;;;;12.43;11.13;;;;;;;;;;5001940;28;20492;-78
2022/06/24 04:25:15;;;;;;;12.43;10.48;;;;;;;;;;4992207;28;20030;-78
2022/06/24 04:27:41;;;;;;;17.38;11.27;;;;;;;;;;4994357;28;20022;-78
2022/06/24 04:30:09;;;;;;;11.52;10.32;;;;;;;;;;5011336;28;20060;-79
2022/06/24 04:32:35;;;;;;;11.98;10.55;;;;;;;;;;4995294;28;20034;-79
2022/06/24 04:35:01;;;;;;;14.15;11.07;;;;;;;;;;4993092;28;20096;-79
2022/06/24 04:37:27;;;;;;;11.68;10.48;;;;;;;;;;4997573;28;20025;-78
2022/06/24 04:39:53;;;;;;;13.40;11.07;;;;;;;;;;5004010;28;20034;-79
2022/06/24 04:42:19;;;;;;;14.38;10.88;;;;;;;;;;4994242;28;20041;-79
2022/06/24 04:44:46;;;;;;;12.07;10.07;;;;;;;;;;4993241;28;20018;-78
2022/06/24 04:47:12;;;;;;;19.27;12.13;;;;;;;;;;4993655;28;20018;-79
2022/06/24 04:49:38;;;;;;;14.05;11.05;;;;;;;;;;4993814;28;20033;-78
2022/06/24 04:52:05;;;;;;;14.65;11.55;;;;;;;;;;4994279;28;20153;-79
2022/06/24 04:54:31;;;;;;;12.38;10.77;;;;;;;;;;4998646;28;20527;-77
2022/06/24 04:56:57;;;;;;;14.65;10.60;;;;;;;;;;4990253;28;20053;-78
2022/06/24 04:59:24;;;;;;;12.13;10.93;;;;;;;;;;4994517;28;20436;-78
2022/06/24 05:01:50;;;;;;;12.35;10.88;;;;;;;;;;4993006;28;20022;-76
2022/06/24 05:04:16;;;;;;;14.05;10.45;;;;;;;;;;5004009;28;20101;-78
2022/06/24 05:06:42;;;;;;;13.50;10.68;;;;;;;;;;5013484;28;20018;-78
2022/06/24 05:09:08;;;;;;;12.40;11.02;;;;;;;;;;5013001;28;20026;-77
2022/06/24 05:11:34;;;;;;;11.90;10.55;;;;;;;;;;5014261;28;20483;-76
2022/06/24 05:14:00;;;;;;;12.02;9.95;;;;;;;;;;5006464;28;20408;-77
2022/06/24 05:16:26;;;;;;;15.20;11.40;;;;;;;;;;4994167;28;20034;-76
2022/06/24 05:18:53;;;;;;;12.32;10.90;;;;;;;;;;5010482;28;20659;-77
2022/06/24 05:21:19;;;;;;;12.73;10.50;;;;;;;;;;5007238;28;20037;-78
2022/06/24 05:23:45;;;;;;;13.95;10.75;;;;;;;;;;5003057;28;20404;-78
2022/06/24 05:26:11;;;;;;;12.65;10.93;;;;;;;;;;4992912;28;20029;-78
2022/06/24 05:28:37;;;;;;;11.85;10.43;;;;;;;;;;4993006;28;20019;-77
2022/06/24 05:31:03;;;;;;;11.65;10.45;;;;;;;;;;4992575;28;20637;-78
2022/06/24 05:33:30;;;;;;;11.52;10.05;;;;;;;;;;4990563;28;20034;-77
2022/06/24 05:35:58;;;;;;;11.57;10.32;;;;;;;;;;4991773;28;20058;-78
2022/06/24 05:38:24;;;;;;;11.20;9.82;;;;;;;;;;4993629;28;20496;-77
2022/06/24 05:40:51;;;;;;;11.68;9.95;;;;;;;;;;5000139;28;20456;-78
2022/06/24 05:43:17;;;;;;;12.23;9.63;;;;;;;;;;5011999;28;20454;-78
2022/06/24 05:45:44;;;;;;;11.25;9.32;;;;;;;;;;5011605;28;20109;-77
2022/06/24 05:48:10;;;;;;;13.07;10.15;;;;;;;;;;5002274;28;20022;-77
2022/06/24 05:50:37;;;;;;;12.25;10.02;;;;;;;;;;4979738;28;20109;-76
2022/06/24 05:55:48;;;;;;;12.90;11.15;;;;;;;;;;4993473;28;20070;-78
2022/06/24 05:58:14;;;;;;;11.65;9.98;;;;;;;;;;5005413;28;20034;-78
2022/06/24 06:00:40;;;;;;;10.60;9.32;;;;;;;;;;4991220;28;20031;-78
2022/06/24 06:03:06;;;;;;;11.18;9.65;;;;;;;;;;4998805;28;20103;-78
2022/06/24 06:05:32;;;;;;;12.20;9.57;;;;;;;;;;5012829;28;20607;-78
2022/06/24 06:07:58;;;;;;;13.32;9.73;;;;;;;;;;5012415;28;20034;-79
2022/06/24 06:10:24;;;;;;;10.75;9.50;;;;;;;;;;5013561;28;20022;-80
2022/06/24 06:12:50;;;;;;;11.40;10.18;;;;;;;;;;5013995;28;20032;-79
2022/06/24 06:15:16;;;;;;;12.60;9.68;;;;;;;;;;5007531;28;20105;-79
2022/06/24 06:17:42;;;;;;;11.98;9.25;;;;;;;;;;5005204;28;20041;-79
2022/06/24 06:20:08;;;;;;;11.13;8.95;;;;;;;;;;5013403;28;20026;-77
2022/06/24 06:22:34;;;;;;;14.95;8.75;;;;;;;;;;4997280;28;20139;-81
2022/06/24 06:25:00;;;;;;;10.13;8.18;;;;;;;;;;4974613;28;20061;-78
2022/06/24 06:27:27;;;;;;;9.23;7.78;;;;;;;;;;4978024;28;20058;-78
2022/06/24 06:29:53;;;;;;;10.20;7.93;;;;;;;;;;5013819;28;20018;-77
2022/06/24 06:32:19;;;;;;;10.85;7.82;;;;;;;;;;4990829;28;20030;-78
2022/06/24 06:34:45;;;;;;;9.85;7.45;;;;;;;;;;4990990;28;20416;-78
2022/06/24 06:37:11;;;;;;;12.18;7.93;;;;;;;;;;5007941;28;20030;-78
2022/06/24 06:39:37;;;;;;;10.20;7.85;;;;;;;;;;4992464;28;20100;-80
2022/06/24 06:42:04;;;;;;;9.95;7.65;;;;;;;;;;5012996;28;20126;-77
2022/06/24 06:44:30;;;;;;;10.40;7.97;;;;;;;;;;5012815;28;20021;-79
2022/06/24 06:46:56;;;;;;;12.20;7.43;;;;;;;;;;4999438;28;20022;-78
2022/06/24 06:49:22;;;;;;;10.18;7.85;;;;;;;;;;4993320;28;20485;-78
2022/06/24 06:51:48;;;;;;;9.98;7.60;;;;;;;;;;4991648;28;20488;-77
2022/06/24 06:54:14;;;;;;;8.60;7.10;;;;;;;;;;5010865;28;20037;-78
2022/06/24 06:56:40;;;;;;;10.13;7.63;;;;;;;;;;5012705;28;20029;-78
2022/06/24 06:59:06;;;;;;;9.07;6.78;;;;;;;;;;5005916;28;20072;-79
2022/06/24 07:01:32;;;;;;;12.55;7.28;;;;;;;;;;4992533;28;20100;-77
2022/06/24 07:03:58;;;;;;;8.93;6.70;;;;;;;;;;5008899;28;20038;-79
2022/06/24 07:06:24;;;;;;;11.48;6.88;;;;;;;;;;5011256;28;20511;-79
2022/06/24 07:08:51;;;;;;;10.13;6.82;;;;;;;;;;5012311;28;20030;-79
2022/06/24 07:11:17;;;;;;;11.38;6.63;;;;;;;;;;5012615;28;20020;-79
2022/06/24 07:13:43;;;;;;;8.85;6.78;;;;;;;;;;5012697;28;20083;-79
2022/06/24 07:16:12;;;;;;;10.18;6.80;;;;;;;;;;5008544;28;20066;-78
2022/06/24 07:18:39;;;;;;;9.63;6.40;;;;;;;;;;5010860;28;20444;-78
2022/06/24 07:21:05;;;;;;;9.02;6.57;;;;;;;;;;5010992;28;20050;-77
2022/06/24 07:23:31;;;;;;;9.32;7.32;;;;;;;;;;5007517;28;20488;-79
2022/06/24 07:25:57;;;;;;;8.52;7.35;;;;;;;;;;4992782;28;20413;-77
2022/06/24 07:28:25;;;;;;;10.23;7.35;;;;;;;;;;4992075;28;20030;-79
2022/06/24 07:30:51;;;;;;;11.23;7.13;;;;;;;;;;4992480;28;20053;-78
2022/06/24 07:33:17;;;;;;;8.80;6.53;;;;;;;;;;4993115;28;20384;-80
2022/06/24 07:35:43;;;;;;;7.82;6.13;;;;;;;;;;4992728;28;20133;-77
2022/06/24 07:38:10;;;;;;;9.00;6.78;;;;;;;;;;4991856;28;20477;-77
2022/06/24 07:40:36;;;;;;;8.10;6.15;;;;;;;;;;5005052;28;20026;-79
2022/06/24 07:43:02;;;;;;;10.27;6.93;;;;;;;;;;5009119;28;20057;-79
2022/06/24 07:45:28;;;;;;;8.63;6.88;;;;;;;;;;4992261;28;20026;-78
2022/06/24 07:47:54;;;;;;;9.52;7.30;;;;;;;;;;4992706;28;20025;-79
2022/06/24 07:50:20;;;;;;;9.50;6.70;;;;;;;;;;5010136;28;20477;-79
2022/06/24 07:52:46;;;;;;;7.43;6.60;;;;;;;;;;5012065;28;20030;-77
2022/06/24 07:57:57;;;;;;;9.20;6.60;;;;;;;;;;4993468;28;20073;-77
2022/06/24 08:00:23;;;;;;;10.18;6.25;;;;;;;;;;4992122;28;20066;-77
2022/06/24 08:02:49;;;;;;;8.85;7.03;;;;;;;;;;5011231;28;20022;-78
2022/06/24 08:05:15;;;;;;;8.38;7.15;;;;;;;;;;5004961;28;20033;-77
2022/06/24 08:07:43;;;;;;;9.07;6.30;;;;;;;;;;4991981;28;20022;-79
2022/06/24 08:10:10;;;;;;;8.77;7.28;;;;;;;;;;4991729;28;20501;-78
2022/06/24 08:12:36;;;;;;;9.45;6.93;;;;;;;;;;4991569;28;20085;-78
2022/06/24 08:15:02;;;;;;;9.05;6.80;;;;;;;;;;4997975;28;20035;-79
2022/06/24 08:17:28;;;;;;;8.52;6.50;;;;;;;;;;4977868;28;20039;-77
2022/06/24 08:19:54;;;;;;;9.20;6.60;;;;;;;;;;4972175;28;20030;-77
2022/06/24 08:22:23;;;;;;;7.35;6.53;;;;;;;;;;4987011;28;20030;-77
2022/06/24 08:24:49;;;;;;;10.70;6.95;;;;;;;;;;4999032;28;20025;-76
2022/06/24 08:27:15;;;;;;;10.77;6.32;;;;;;;;;;5010282;28;20030;-77
2022/06/24 08:29:42;;;;;;;7.80;6.32;;;;;;;;;;5005749;28;20081;-78
2022/06/24 08:32:08;;;;;;;10.10;7.28;;;;;;;;;;5009603;28;20022;-77
2022/06/24 08:34:34;;;;;;;9.00;6.85;;;;;;;;;;5009000;28;20070;-77
2022/06/24 08:37:00;;;;;;;8.20;6.93;;;;;;;;;;5010441;28;20049;-77
2022/06/24 08:39:26;;;;;;;8.75;7.15;;;;;;;;;;5010814;28;20436;-78
2022/06/24 08:41:54;;;;;;;9.00;7.10;;;;;;;;;;5014321;28;20061;-78
2022/06/24 08:44:21;;;;;;;11.93;7.05;;;;;;;;;;5006615;28;20041;-77
2022/06/24 08:46:47;;;;;;;8.00;6.72;;;;;;;;;;5013340;28;20014;-77
2022/06/24 08:49:13;;;;;;;9.63;7.30;;;;;;;;;;5013264;28;20026;-78
2022/06/24 08:51:41;;;;;;;8.68;7.07;;;;;;;;;;5013008;28;20480;-76
2022/06/24 08:54:08;;;;;;;9.18;7.05;;;;;;;;;;5014311;28;20064;-77
2022/06/24 08:56:34;;;;;;;10.52;7.10;;;;;;;;;;5009026;28;20038;-77
2022/06/24 08:59:00;;;;;;;8.77;7.38;;;;;;;;;;5014183;28;20105;-77
2022/06/24 09:01:26;;;;;;;10.07;6.65;;;;;;;;;;5014056;28;20029;-77
2022/06/24 09:03:52;;;;;;;9.60;6.93;;;;;;;;;;5007759;28;20611;-78
2022/06/24 09:06:18;;;;;;;7.57;6.38;;;;;;;;;;5001232;28;20105;-77
2022/06/24 09:08:52;;;;;;;9.68;6.95;;;;;;;;;;4994194;28;20105;-77
2022/06/24 09:11:18;;;;;;;9.48;6.93;;;;;;;;;;5000175;28;20022;-81
2022/06/24 09:13:45;;;;;;;9.13;7.10;;;;;;;;;;5012710;28;20029;-77
2022/06/24 09:16:12;;;;;;;11.10;7.03;;;;;;;;;;5014052;28;20033;-77
2022/06/24 09:18:38;;;;;;;10.18;6.85;;;;;;;;;;5008651;28;20420;-76
2022/06/24 09:21:04;;;;;;;8.60;6.70;;;;;;;;;;4994200;28;20022;-78
2022/06/24 09:23:30;;;;;;;9.05;6.97;;;;;;;;;;4994085;28;20026;-77
2022/06/24 09:25:59;;;;;;;10.98;6.22;;;;;;;;;;4991696;28;20058;-77
2022/06/24 09:28:29;;;;;;;8.75;5.53;;;;;;;;;;5005641;28;20384;-77
2022/06/24 09:31:02;;;;;;;10.07;5.53;;;;;;;;;;5012612;28;20026;-78
2022/06/24 09:33:35;;;;;;;11.02;6.50;;;;;;;;;;5001851;28;20030;-78
2022/06/24 09:36:02;;;;;;;6.75;5.03;;;;;;;;;;4974787;28;20039;-79
2022/06/24 09:38:28;;;;;;;7.32;5.50;;;;;;;;;;4988444;28;20500;-78
2022/06/24 09:41:01;;;;;;;8.52;5.60;;;;;;;;;;4993386;28;20041;-77
2022/06/24 09:43:31;;;;;;;10.38;6.30;;;;;;;;;;4993873;28;20030;-77
2022/06/24 09:45:57;;;;;;;7.22;6.00;;;;;;;;;;4993781;28;20620;-77
2022/06/24 09:48:34;;;;;;;9.63;6.25;;;;;;;;;;5005742;28;20092;-77
2022/06/24 09:51:06;;;;;;;7.55;5.70;;;;;;;;;;5012556;28;20022;-77
2022/06/24 09:53:35;;;;;;;7.80;6.07;;;;;;;;;;5011890;28;20050;-78
2022/06/24 09:56:01;;;;;;;8.15;6.35;;;;;;;;;;5009757;28;20034;-78
2022/06/24 09:58:27;;;;;;;10.15;5.90;;;;;;;;;;4996501;28;20120;-78
2022/06/24 10:00:53;;;;;;;9.93;6.70;;;;;;;;;;5013516;28;20464;-77
2022/06/24 10:03:19;;;;;;;9.45;6.53;;;;;;;;;;5008866;28;20104;-77
2022/06/24 10:05:47;;;;;;;8.00;6.30;;;;;;;;;;4993386;28;20531;-79
2022/06/24 10:08:20;;;;;;;7.47;6.00;;;;;;;;;;5007427;28;20029;-77
2022/06/24 10:10:48;;;;;;;7.40;6.60;;;;;;;;;;5012688;28;20393;-77
2022/06/24 10:13:18;;;;;;;6.88;5.55;;;;;;;;;;4994496;28;20031;-76
2022/06/24 10:15:44;;;;;;;7.88;5.88;;;;;;;;;;4974131;28;20037;-77
2022/06/24 10:18:12;;;;;;;7.13;5.45;;;;;;;;;;4973369;28;20034;-77
2022/06/24 10:20:42;;;;;;;6.93;6.13;;;;;;;;;;4973424;28;20026;-77
2022/06/24 10:23:08;;;;;;;8.00;6.15;;;;;;;;;;4973766;28;20477;-77
2022/06/24 10:25:49;;;;;;;8.27;6.22;;;;;;;;;;4990359;28;20026;-77
2022/06/24 10:28:15;;;;;;;8.35;5.80;;;;;;;;;;5005815;28;20088;-77
2022/06/24 10:30:41;;;;;;;9.07;5.88;;;;;;;;;;5012436;28;20030;-77
2022/06/24 10:33:21;;;;;;;10.32;5.78;;;;;;;;;;4981561;28;20477;-79
2022/06/24 10:36:07;;;;;;;7.43;5.50;;;;;;;;;;4972707;28;20051;-77
2022/06/24 10:38:43;;;;;;;8.05;6.15;;;;;;;;;;4992661;28;20404;-76
2022/06/24 10:41:11;;;;;;;7.82;5.70;;;;;;;;;;4991552;28;20031;-77
2022/06/24 10:43:41;;;;;;;11.35;5.95;;;;;;;;;;4991678;28;20125;-77
2022/06/24 10:46:13;;;;;;;7.50;6.07;;;;;;;;;;4987628;28;20429;-76
2022/06/24 10:48:47;;;;;;;9.35;5.70;;;;;;;;;;5011921;28;20030;-77
2022/06/24 10:51:20;;;;;;;8.55;5.65;;;;;;;;;;5001960;28;20447;-76
2022/06/24 10:54:09;;;;;;;8.98;5.43;;;;;;;;;;4991538;28;20414;-78
2022/06/24 10:56:35;;;;;;;6.57;5.85;;;;;;;;;;4990002;28;20026;-76
2022/06/24 10:59:01;;;;;;;8.18;5.88;;;;;;;;;;4990805;28;20030;-77
2022/06/24 11:01:27;;;;;;;7.57;5.88;;;;;;;;;;4992355;28;20610;-79
2022/06/24 11:03:54;;;;;;;7.28;5.38;;;;;;;;;;4988761;28;20088;-75
2022/06/24 11:06:20;;;;;;;7.82;5.50;;;;;;;;;;4992671;28;20030;-78
2022/06/24 11:08:46;;;;;;;8.73;4.93;;;;;;;;;;4990808;28;20023;-78
2022/06/24 11:11:24;;;;;;;7.15;5.60;;;;;;;;;;4992365;28;20027;-77
2022/06/24 11:13:51;;;;;;;9.07;5.20;;;;;;;;;;4990675;28;20026;-77
2022/06/24 11:16:18;;;;;;;8.73;5.30;;;;;;;;;;4990525;28;20034;-77
2022/06/24 11:18:49;;;;;;;7.22;5.53;;;;;;;;;;4979126;28;20068;-77
2022/06/24 11:21:17;;;;;;;5.90;5.20;;;;;;;;;;5001482;28;20030;-77
2022/06/24 11:23:44;;;;;;;7.43;5.35;;;;;;;;;;4991849;28;20022;-76
2022/06/24 11:26:13;;;;;;;9.07;5.10;;;;;;;;;;4996435;28;20105;-76
2022/06/24 11:28:40;;;;;;;10.60;5.40;;;;;;;;;;4986750;28;20122;-77
2022/06/24 11:31:19;;;;;;;7.18;5.53;;;;;;;;;;4972853;28;20022;-78
2022/06/24 11:33:46;;;;;;;10.40;5.68;;;;;;;;;;5000842;28;20515;-78
2022/06/24 11:36:14;;;;;;;16.15;6.55;;;;;;;;;;5008301;28;20061;-77
2022/06/24 11:38:49;;;;;;;9.48;5.75;;;;;;;;;;4984344;28;20050;-78
2022/06/24 11:41:42;;;;;;;6.78;5.28;;;;;;;;;;4990631;28;20033;-77
2022/06/24 11:44:08;;;;;;;7.53;4.70;;;;;;;;;;4985432;28;20654;-76
2022/06/24 11:46:34;;;;;;;9.40;5.70;;;;;;;;;;4991663;28;20030;-76
2022/06/24 11:49:07;;;;;;;7.13;4.95;;;;;;;;;;4986570;28;20037;-76
2022/06/24 11:51:34;;;;;;;6.40;5.00;;;;;;;;;;4991513;28;20101;-78
2022/06/24 11:54:01;;;;;;;7.63;4.63;;;;;;;;;;4993623;28;20110;-76
2022/06/24 11:56:28;;;;;;;6.38;4.50;;;;;;;;;;4999597;28;20026;-78
2022/06/24 11:58:57;;;;;;;6.40;5.15;;;;;;;;;;4992116;28;20023;-77
2022/06/24 12:01:24;;;;;;;8.65;4.78;;;;;;;;;;4991320;28;20026;-78
2022/06/24 12:03:51;;;;;;;6.40;4.68;;;;;;;;;;4992514;28;20385;-78
2022/06/24 12:06:18;;;;;;;10.63;5.03;;;;;;;;;;4993388;28;20023;-78
2022/06/24 12:08:45;;;;;;;11.85;5.28;;;;;;;;;;4992883;28;20034;-76
2022/06/24 12:11:29;;;;;;;8.13;4.80;;;;;;;;;;4991543;28;20030;-78
2022/06/24 12:14:05;;;;;;;8.63;5.03;;;;;;;;;;4992172;28;20165;-78
2022/06/24 12:16:50;;;;;;;7.10;5.07;;;;;;;;;;4997651;28;20547;-77
2022/06/24 12:19:16;;;;;;;6.90;4.80;;;;;;;;;;4994400;28;20065;-78
2022/06/24 12:21:42;;;;;;;8.57;5.15;;;;;;;;;;4993914;28;20061;-79
2022/06/24 12:24:24;;;;;;;6.80;5.32;;;;;;;;;;4994595;28;20035;-76
2022/06/24 12:26:58;;;;;;;7.68;5.00;;;;;;;;;;5001462;28;20022;-78
2022/06/24 12:29:30;;;;;;;6.60;5.20;;;;;;;;;;5014885;28;20021;-77
2022/06/24 12:31:56;;;;;;;8.05;5.10;;;;;;;;;;5001253;28;20042;-77
2022/06/24 12:34:26;;;;;;;9.75;5.13;;;;;;;;;;4979745;28;20420;-76
2022/06/24 12:36:56;;;;;;;6.80;5.00;;;;;;;;;;4982208;28;20472;-78
2022/06/24 12:39:27;;;;;;;8.55;4.95;;;;;;;;;;4992263;28;20026;-77
2022/06/24 12:41:53;;;;;;;7.57;5.13;;;;;;;;;;4994725;28;20037;-77
2022/06/24 12:44:19;;;;;;;7.63;5.70;;;;;;;;;;4994771;28;20034;-77
2022/06/24 12:52:35;;;;;;;6.75;5.40;;;;;;;;;;4995889;28;20038;-77
2022/06/24 12:55:02;;;;;;;7.88;5.53;;;;;;;;;;4995164;28;20400;-78
2022/06/24 12:57:29;;;;;;;6.68;4.97;;;;;;;;;;4992930;28;20496;-77
2022/06/24 12:59:55;;;;;;;6.78;5.30;;;;;;;;;;4994883;28;20034;-78
2022/06/24 13:02:21;;;;;;;8.48;5.07;;;;;;;;;;5003063;28;20539;-78
2022/06/24 13:04:47;;;;;;;8.35;4.88;;;;;;;;;;4994511;28;20025;-77
2022/06/24 13:07:13;;;;;;;9.38;4.70;;;;;;;;;;4995416;28;20492;-79
2022/06/24 13:09:39;;;;;;;7.05;4.53;;;;;;;;;;4994351;28;20034;-77
2022/06/24 13:12:06;;;;;;;12.00;5.15;;;;;;;;;;4994537;28;20029;-77
2022/06/24 13:14:32;;;;;;;6.72;4.72;;;;;;;;;;4994506;28;20069;-77
2022/06/24 13:16:58;;;;;;;7.03;4.38;;;;;;;;;;5004467;28;20063;-76
2022/06/24 13:19:24;;;;;;;7.43;4.22;;;;;;;;;;4994349;28;20031;-77
2022/06/24 13:21:50;;;;;;;6.50;4.30;;;;;;;;;;4994186;28;20472;-78
2022/06/24 13:24:19;;;;;;;7.18;4.32;;;;;;;;;;4994258;28;20030;-77
2022/06/24 13:26:45;;;;;;;11.15;4.45;;;;;;;;;;4996920;28;20053;-76
2022/06/24 13:29:11;;;;;;;8.57;4.28;;;;;;;;;;5013998;28;20026;-78
2022/06/24 13:31:38;;;;;;;7.85;3.80;;;;;;;;;;4994001;28;20488;-77
2022/06/24 13:34:05;;;;;;;6.07;4.10;;;;;;;;;;4993885;28;20042;-76
2022/06/24 13:36:31;;;;;;;17.65;6.15;;;;;;;;;;4992931;28;20030;-79
2022/06/24 13:38:57;;;;;;;6.93;4.28;;;;;;;;;;4992237;28;20061;-78
2022/06/24 13:41:23;;;;;;;6.40;4.50;;;;;;;;;;4991663;28;20104;-76
2022/06/24 13:43:49;;;;;;;7.22;4.55;;;;;;;;;;4992406;28;20477;-77
2022/06/24 13:46:15;;;;;;;8.60;4.90;;;;;;;;;;5002186;28;20030;-77
2022/06/24 13:48:41;;;;;;;8.65;5.18;;;;;;;;;;4991855;28;20030;-77
2022/06/24 13:51:07;;;;;;;8.95;4.85;;;;;;;;;;5000251;28;20045;-78
2022/06/24 13:53:33;;;;;;;10.32;5.13;;;;;;;;;;5011267;28;20469;-77
2022/06/24 13:55:59;;;;;;;11.10;5.00;;;;;;;;;;5012482;28;20573;-77
2022/06/24 13:58:25;;;;;;;9.55;5.18;;;;;;;;;;5027199;28;20037;-78
2022/06/24 14:00:51;;;;;;;6.15;4.70;;;;;;;;;;4997647;28;20066;-78
2022/06/24 14:03:17;;;;;;;6.28;4.30;;;;;;;;;;4994408;28;20121;-77
2022/06/24 14:05:43;;;;;;;8.63;4.75;;;;;;;;;;5013059;28;20037;-79
2022/06/24 14:08:09;;;;;;;6.72;5.10;;;;;;;;;;5013066;28;20022;-78
2022/06/24 14:10:35;;;;;;;6.32;5.05;;;;;;;;;;5012862;28;20101;-78
2022/06/24 14:13:02;;;;;;;8.52;5.40;;;;;;;;;;4988519;28;20027;-78
2022/06/24 14:15:28;;;;;;;9.45;4.95;;;;;;;;;;4990711;28;20045;-76
2022/06/24 14:17:54;;;;;;;8.95;4.80;;;;;;;;;;4992599;28;20548;-78
2022/06/24 14:20:20;;;;;;;8.70;5.35;;;;;;;;;;4993291;28;20506;-78
2022/06/24 14:25:31;;;;;;;11.10;5.68;;;;;;;;;;4974431;28;20037;-77
2022/06/24 14:27:57;;;;;;;10.02;5.07;;;;;;;;;;5012876;28;20060;-78
2022/06/24 14:30:23;;;;;;;8.40;5.57;;;;;;;;;;4990536;28;20026;-76
2022/06/24 14:32:49;;;;;;;9.52;5.40;;;;;;;;;;4992411;28;20370;-78
2022/06/24 14:35:16;;;;;;;7.43;5.53;;;;;;;;;;5008312;28;20109;-78
2022/06/24 14:40:27;;;;;;;10.95;5.45;;;;;;;;;;5010992;28;20088;-77
2022/06/24 14:42:53;;;;;;;9.48;5.20;;;;;;;;;;5012221;28;20034;-78
2022/06/24 14:45:19;;;;;;;7.85;5.43;;;;;;;;;;5004906;28;20041;-79
2022/06/24 14:47:45;;;;;;;5.85;5.00;;;;;;;;;;4992588;28;20022;-76
2022/06/24 14:50:11;;;;;;;6.20;4.97;;;;;;;;;;4990719;28;20126;-78
2022/06/24 14:52:39;;;;;;;9.30;5.55;;;;;;;;;;5000119;28;20120;-79
2022/06/24 14:55:05;;;;;;;8.55;5.38;;;;;;;;;;5006489;28;20096;-78
2022/06/24 14:57:32;;;;;;;8.32;5.45;;;;;;;;;;5012250;28;20076;-77
2022/06/24 14:59:58;;;;;;;8.88;5.68;;;;;;;;;;5001153;28;20113;-77